sensor_id;sensor_type;location;lat;lon;timestamp;P1;durP1;ratioP1;P2;durP2;ratioP2
76667;SDS011;65585;51.166;16.922;2023-08-06T00:00:07;9.40;;;6.00;;
76667;SDS011;65585;51.166;16.922;2023-08-06T00:02:56;7.78;;;5.20;;
76667;SDS011;65585;51.166;16.922;2023-08-06T00:05:22;7.70;;;5.22;;
76667;SDS011;65585;51.166;16.922;2023-08-06T00:07:49;7.47;;;5.63;;
76667;SDS011;65585;51.166;16.922;2023-08-06T00:10:15;7.38;;;4.53;;
76667;SDS011;65585;51.166;16.922;2023-08-06T00:12:42;6.25;;;4.60;;
76667;SDS011;65585;51.166;16.922;2023-08-06T00:15:08;8.20;;;5.18;;
76667;SDS011;65585;51.166;16.922;2023-08-06T00:17:34;6.50;;;4.60;;
76667;SDS011;65585;51.166;16.922;2023-08-06T00:20:01;5.70;;;4.38;;
76667;SDS011;65585;51.166;16.922;2023-08-06T00:22:34;5.85;;;4.57;;
76667;SDS011;65585;51.166;16.922;2023-08-06T00:25:00;6.35;;;4.95;;
76667;SDS011;65585;51.166;16.922;2023-08-06T00:27:27;6.32;;;4.53;;
76667;SDS011;65585;51.166;16.922;2023-08-06T00:29:52;5.57;;;4.50;;
76667;SDS011;65585;51.166;16.922;2023-08-06T00:32:19;6.13;;;4.28;;
76667;SDS011;65585;51.166;16.922;2023-08-06T00:34:44;5.50;;;4.30;;
76667;SDS011;65585;51.166;16.922;2023-08-06T00:37:11;6.82;;;4.78;;
76667;SDS011;65585;51.166;16.922;2023-08-06T00:39:36;6.22;;;4.18;;
76667;SDS011;65585;51.166;16.922;2023-08-06T00:42:03;6.40;;;4.50;;
76667;SDS011;65585;51.166;16.922;2023-08-06T00:44:29;5.57;;;4.15;;
76667;SDS011;65585;51.166;16.922;2023-08-06T00:46:55;5.18;;;4.38;;
76667;SDS011;65585;51.166;16.922;2023-08-06T00:49:21;6.10;;;4.38;;
76667;SDS011;65585;51.166;16.922;2023-08-06T00:51:47;6.40;;;4.38;;
76667;SDS011;65585;51.166;16.922;2023-08-06T00:54:13;5.03;;;4.05;;
76667;SDS011;65585;51.166;16.922;2023-08-06T00:56:39;5.47;;;3.92;;
76667;SDS011;65585;51.166;16.922;2023-08-06T00:59:07;6.45;;;4.30;;
76667;SDS011;65585;51.166;16.922;2023-08-06T01:01:33;6.45;;;4.35;;
76667;SDS011;65585;51.166;16.922;2023-08-06T01:03:59;5.25;;;3.67;;
76667;SDS011;65585;51.166;16.922;2023-08-06T01:06:33;4.68;;;3.47;;
76667;SDS011;65585;51.166;16.922;2023-08-06T01:09:06;5.50;;;3.92;;
76667;SDS011;65585;51.166;16.922;2023-08-06T01:11:40;4.15;;;3.33;;
76667;SDS011;65585;51.166;16.922;2023-08-06T01:16:54;4.60;;;3.38;;
76667;SDS011;65585;51.166;16.922;2023-08-06T01:19:21;5.00;;;3.28;;
76667;SDS011;65585;51.166;16.922;2023-08-06T01:21:47;3.22;;;2.63;;
76667;SDS011;65585;51.166;16.922;2023-08-06T01:24:13;4.88;;;3.53;;
76667;SDS011;65585;51.166;16.922;2023-08-06T01:26:42;5.22;;;3.30;;
76667;SDS011;65585;51.166;16.922;2023-08-06T01:31:38;3.90;;;2.63;;
76667;SDS011;65585;51.166;16.922;2023-08-06T01:34:06;3.08;;;2.55;;
76667;SDS011;65585;51.166;16.922;2023-08-06T01:36:33;2.65;;;2.22;;
76667;SDS011;65585;51.166;16.922;2023-08-06T01:38:59;3.08;;;2.30;;
76667;SDS011;65585;51.166;16.922;2023-08-06T01:41:25;2.67;;;2.08;;
76667;SDS011;65585;51.166;16.922;2023-08-06T01:43:51;3.15;;;2.40;;
76667;SDS011;65585;51.166;16.922;2023-08-06T01:46:17;4.97;;;2.80;;
76667;SDS011;65585;51.166;16.922;2023-08-06T01:48:43;3.05;;;2.42;;
76667;SDS011;65585;51.166;16.922;2023-08-06T01:51:09;3.22;;;2.53;;
76667;SDS011;65585;51.166;16.922;2023-08-06T01:53:35;3.28;;;2.30;;
76667;SDS011;65585;51.166;16.922;2023-08-06T01:56:01;3.33;;;2.15;;
76667;SDS011;65585;51.166;16.922;2023-08-06T01:58:27;2.95;;;2.45;;
76667;SDS011;65585;51.166;16.922;2023-08-06T02:00:53;2.72;;;2.08;;
76667;SDS011;65585;51.166;16.922;2023-08-06T02:03:19;3.38;;;2.17;;
76667;SDS011;65585;51.166;16.922;2023-08-06T02:05:45;3.15;;;2.25;;
76667;SDS011;65585;51.166;16.922;2023-08-06T02:08:11;3.22;;;2.20;;
76667;SDS011;65585;51.166;16.922;2023-08-06T02:10:37;3.38;;;2.22;;
76667;SDS011;65585;51.166;16.922;2023-08-06T02:13:03;3.00;;;2.15;;
76667;SDS011;65585;51.166;16.922;2023-08-06T02:15:28;2.67;;;1.92;;
76667;SDS011;65585;51.166;16.922;2023-08-06T02:17:55;4.00;;;2.10;;
76667;SDS011;65585;51.166;16.922;2023-08-06T02:20:21;5.47;;;2.20;;
76667;SDS011;65585;51.166;16.922;2023-08-06T02:22:47;3.92;;;2.17;;
76667;SDS011;65585;51.166;16.922;2023-08-06T02:25:12;3.67;;;1.83;;
76667;SDS011;65585;51.166;16.922;2023-08-06T02:27:39;2.72;;;1.80;;
76667;SDS011;65585;51.166;16.922;2023-08-06T02:30:05;3.08;;;1.90;;
76667;SDS011;65585;51.166;16.922;2023-08-06T02:32:32;3.60;;;1.80;;
76667;SDS011;65585;51.166;16.922;2023-08-06T02:34:58;2.05;;;1.65;;
76667;SDS011;65585;51.166;16.922;2023-08-06T02:37:24;2.20;;;1.77;;
76667;SDS011;65585;51.166;16.922;2023-08-06T02:39:50;2.50;;;1.80;;
76667;SDS011;65585;51.166;16.922;2023-08-06T02:42:16;2.47;;;2.00;;
76667;SDS011;65585;51.166;16.922;2023-08-06T02:44:42;4.18;;;1.98;;
76667;SDS011;65585;51.166;16.922;2023-08-06T02:47:09;3.95;;;1.77;;
76667;SDS011;65585;51.166;16.922;2023-08-06T02:49:34;3.40;;;2.28;;
76667;SDS011;65585;51.166;16.922;2023-08-06T02:52:00;3.35;;;2.38;;
76667;SDS011;65585;51.166;16.922;2023-08-06T02:54:26;2.58;;;1.88;;
76667;SDS011;65585;51.166;16.922;2023-08-06T02:56:52;2.45;;;1.90;;
76667;SDS011;65585;51.166;16.922;2023-08-06T02:59:18;2.55;;;1.92;;
76667;SDS011;65585;51.166;16.922;2023-08-06T03:01:45;2.70;;;1.90;;
76667;SDS011;65585;51.166;16.922;2023-08-06T03:04:10;2.50;;;1.90;;
76667;SDS011;65585;51.166;16.922;2023-08-06T03:06:36;3.00;;;2.13;;
76667;SDS011;65585;51.166;16.922;2023-08-06T03:09:02;3.47;;;1.70;;
76667;SDS011;65585;51.166;16.922;2023-08-06T03:11:28;4.63;;;1.70;;
76667;SDS011;65585;51.166;16.922;2023-08-06T03:13:54;2.28;;;1.70;;
76667;SDS011;65585;51.166;16.922;2023-08-06T03:16:21;2.08;;;1.70;;
76667;SDS011;65585;51.166;16.922;2023-08-06T03:18:46;4.20;;;1.70;;
76667;SDS011;65585;51.166;16.922;2023-08-06T03:21:13;3.42;;;1.58;;
76667;SDS011;65585;51.166;16.922;2023-08-06T03:23:39;2.33;;;1.60;;
76667;SDS011;65585;51.166;16.922;2023-08-06T03:26:05;2.50;;;1.77;;
76667;SDS011;65585;51.166;16.922;2023-08-06T03:28:31;3.15;;;1.50;;
76667;SDS011;65585;51.166;16.922;2023-08-06T03:31:01;2.45;;;1.40;;
76667;SDS011;65585;51.166;16.922;2023-08-06T03:33:27;2.47;;;1.33;;
76667;SDS011;65585;51.166;16.922;2023-08-06T03:35:54;2.03;;;1.52;;
76667;SDS011;65585;51.166;16.922;2023-08-06T03:38:20;1.58;;;1.30;;
76667;SDS011;65585;51.166;16.922;2023-08-06T03:40:46;1.95;;;1.42;;
76667;SDS011;65585;51.166;16.922;2023-08-06T03:43:12;2.03;;;1.50;;
76667;SDS011;65585;51.166;16.922;2023-08-06T03:45:38;3.03;;;1.30;;
76667;SDS011;65585;51.166;16.922;2023-08-06T03:48:05;2.17;;;1.33;;
76667;SDS011;65585;51.166;16.922;2023-08-06T03:50:31;1.48;;;1.27;;
76667;SDS011;65585;51.166;16.922;2023-08-06T03:52:57;2.90;;;1.33;;
76667;SDS011;65585;51.166;16.922;2023-08-06T03:55:23;2.15;;;1.33;;
76667;SDS011;65585;51.166;16.922;2023-08-06T03:57:49;1.80;;;1.13;;
76667;SDS011;65585;51.166;16.922;2023-08-06T04:00:15;1.90;;;1.30;;
76667;SDS011;65585;51.166;16.922;2023-08-06T04:02:41;1.75;;;1.17;;
76667;SDS011;65585;51.166;16.922;2023-08-06T04:05:08;1.48;;;1.20;;
76667;SDS011;65585;51.166;16.922;2023-08-06T04:07:34;1.77;;;1.17;;
76667;SDS011;65585;51.166;16.922;2023-08-06T04:10:01;1.63;;;1.15;;
76667;SDS011;65585;51.166;16.922;2023-08-06T04:12:27;1.75;;;1.23;;
76667;SDS011;65585;51.166;16.922;2023-08-06T04:14:54;2.17;;;1.45;;
76667;SDS011;65585;51.166;16.922;2023-08-06T04:17:20;1.45;;;1.30;;
76667;SDS011;65585;51.166;16.922;2023-08-06T04:19:53;1.17;;;1.08;;
76667;SDS011;65585;51.166;16.922;2023-08-06T04:22:19;1.65;;;1.35;;
76667;SDS011;65585;51.166;16.922;2023-08-06T04:24:46;1.90;;;1.23;;
76667;SDS011;65585;51.166;16.922;2023-08-06T04:27:12;1.35;;;1.20;;
76667;SDS011;65585;51.166;16.922;2023-08-06T04:29:38;2.85;;;1.40;;
76667;SDS011;65585;51.166;16.922;2023-08-06T04:32:05;1.73;;;1.40;;
76667;SDS011;65585;51.166;16.922;2023-08-06T04:34:32;2.05;;;1.35;;
76667;SDS011;65585;51.166;16.922;2023-08-06T04:36:58;1.98;;;1.02;;
76667;SDS011;65585;51.166;16.922;2023-08-06T04:39:24;1.60;;;1.13;;
76667;SDS011;65585;51.166;16.922;2023-08-06T04:41:50;2.10;;;1.30;;
76667;SDS011;65585;51.166;16.922;2023-08-06T04:44:16;1.15;;;1.02;;
76667;SDS011;65585;51.166;16.922;2023-08-06T04:46:42;1.52;;;1.33;;
76667;SDS011;65585;51.166;16.922;2023-08-06T04:49:08;1.92;;;1.27;;
76667;SDS011;65585;51.166;16.922;2023-08-06T04:51:34;1.40;;;1.13;;
76667;SDS011;65585;51.166;16.922;2023-08-06T04:54:01;2.50;;;1.30;;
76667;SDS011;65585;51.166;16.922;2023-08-06T04:56:27;1.98;;;1.60;;
76667;SDS011;65585;51.166;16.922;2023-08-06T04:58:53;1.60;;;1.50;;
76667;SDS011;65585;51.166;16.922;2023-08-06T05:01:19;1.70;;;1.27;;
76667;SDS011;65585;51.166;16.922;2023-08-06T05:03:46;2.80;;;1.27;;
76667;SDS011;65585;51.166;16.922;2023-08-06T05:06:12;1.45;;;1.20;;
76667;SDS011;65585;51.166;16.922;2023-08-06T05:08:38;1.33;;;1.17;;
76667;SDS011;65585;51.166;16.922;2023-08-06T05:11:04;2.05;;;1.20;;
76667;SDS011;65585;51.166;16.922;2023-08-06T05:13:30;1.90;;;1.30;;
76667;SDS011;65585;51.166;16.922;2023-08-06T05:15:56;1.55;;;1.20;;
76667;SDS011;65585;51.166;16.922;2023-08-06T05:18:22;2.45;;;1.58;;
76667;SDS011;65585;51.166;16.922;2023-08-06T05:20:48;1.80;;;1.40;;
76667;SDS011;65585;51.166;16.922;2023-08-06T05:23:14;2.85;;;1.40;;
76667;SDS011;65585;51.166;16.922;2023-08-06T05:25:40;2.80;;;1.45;;
76667;SDS011;65585;51.166;16.922;2023-08-06T05:28:06;2.53;;;1.50;;
76667;SDS011;65585;51.166;16.922;2023-08-06T05:30:32;2.92;;;1.45;;
76667;SDS011;65585;51.166;16.922;2023-08-06T05:32:59;2.17;;;1.50;;
76667;SDS011;65585;51.166;16.922;2023-08-06T05:35:24;1.77;;;1.40;;
76667;SDS011;65585;51.166;16.922;2023-08-06T05:37:51;2.58;;;1.45;;
76667;SDS011;65585;51.166;16.922;2023-08-06T05:40:16;2.08;;;1.40;;
76667;SDS011;65585;51.166;16.922;2023-08-06T05:42:43;2.60;;;1.55;;
76667;SDS011;65585;51.166;16.922;2023-08-06T05:45:08;1.77;;;1.20;;
76667;SDS011;65585;51.166;16.922;2023-08-06T05:47:35;2.30;;;1.42;;
76667;SDS011;65585;51.166;16.922;2023-08-06T05:50:01;1.90;;;1.50;;
76667;SDS011;65585;51.166;16.922;2023-08-06T05:52:27;1.92;;;1.48;;
76667;SDS011;65585;51.166;16.922;2023-08-06T05:54:53;1.98;;;1.60;;
76667;SDS011;65585;51.166;16.922;2023-08-06T05:57:23;1.98;;;1.40;;
76667;SDS011;65585;51.166;16.922;2023-08-06T05:59:49;1.48;;;1.27;;
76667;SDS011;65585;51.166;16.922;2023-08-06T06:02:15;2.78;;;1.30;;
76667;SDS011;65585;51.166;16.922;2023-08-06T06:04:41;2.17;;;1.60;;
76667;SDS011;65585;51.166;16.922;2023-08-06T06:07:08;1.67;;;1.30;;
76667;SDS011;65585;51.166;16.922;2023-08-06T06:09:33;3.35;;;1.13;;
76667;SDS011;65585;51.166;16.922;2023-08-06T06:12:00;1.10;;;1.00;;
76667;SDS011;65585;51.166;16.922;2023-08-06T06:14:26;1.17;;;0.98;;
76667;SDS011;65585;51.166;16.922;2023-08-06T06:16:52;1.83;;;1.38;;
76667;SDS011;65585;51.166;16.922;2023-08-06T06:19:18;2.60;;;1.35;;
76667;SDS011;65585;51.166;16.922;2023-08-06T06:21:45;2.00;;;1.40;;
76667;SDS011;65585;51.166;16.922;2023-08-06T06:24:11;1.80;;;1.27;;
76667;SDS011;65585;51.166;16.922;2023-08-06T06:26:38;1.23;;;0.98;;
76667;SDS011;65585;51.166;16.922;2023-08-06T06:29:15;2.55;;;1.40;;
76667;SDS011;65585;51.166;16.922;2023-08-06T06:31:42;1.10;;;1.00;;
76667;SDS011;65585;51.166;16.922;2023-08-06T06:34:10;1.73;;;1.10;;
76667;SDS011;65585;51.166;16.922;2023-08-06T06:36:36;2.20;;;1.10;;
76667;SDS011;65585;51.166;16.922;2023-08-06T06:39:02;1.70;;;1.20;;
76667;SDS011;65585;51.166;16.922;2023-08-06T06:43:57;3.40;;;1.50;;
76667;SDS011;65585;51.166;16.922;2023-08-06T06:46:24;1.58;;;1.20;;
76667;SDS011;65585;51.166;16.922;2023-08-06T06:48:50;1.88;;;1.20;;
76667;SDS011;65585;51.166;16.922;2023-08-06T06:51:17;1.70;;;1.30;;
76667;SDS011;65585;51.166;16.922;2023-08-06T06:53:42;3.08;;;1.52;;
76667;SDS011;65585;51.166;16.922;2023-08-06T06:56:08;2.33;;;1.55;;
76667;SDS011;65585;51.166;16.922;2023-08-06T06:58:34;3.60;;;1.73;;
76667;SDS011;65585;51.166;16.922;2023-08-06T07:01:01;1.58;;;1.30;;
76667;SDS011;65585;51.166;16.922;2023-08-06T07:03:26;3.10;;;1.73;;
76667;SDS011;65585;51.166;16.922;2023-08-06T07:05:56;2.28;;;1.40;;
76667;SDS011;65585;51.166;16.922;2023-08-06T07:08:22;2.40;;;1.60;;
76667;SDS011;65585;51.166;16.922;2023-08-06T07:10:59;2.03;;;1.48;;
76667;SDS011;65585;51.166;16.922;2023-08-06T07:13:25;3.03;;;1.70;;
76667;SDS011;65585;51.166;16.922;2023-08-06T07:15:53;2.65;;;1.60;;
76667;SDS011;65585;51.166;16.922;2023-08-06T07:18:22;2.45;;;1.50;;
76667;SDS011;65585;51.166;16.922;2023-08-06T07:20:51;2.50;;;1.80;;
76667;SDS011;65585;51.166;16.922;2023-08-06T07:23:31;2.50;;;2.00;;
76667;SDS011;65585;51.166;16.922;2023-08-06T07:26:08;4.07;;;1.92;;
76667;SDS011;65585;51.166;16.922;2023-08-06T07:28:37;2.80;;;2.20;;
76667;SDS011;65585;51.166;16.922;2023-08-06T07:31:14;2.47;;;2.03;;
76667;SDS011;65585;51.166;16.922;2023-08-06T07:33:42;2.70;;;2.20;;
76667;SDS011;65585;51.166;16.922;2023-08-06T07:36:12;3.22;;;2.58;;
76667;SDS011;65585;51.166;16.922;2023-08-06T07:38:41;2.78;;;2.53;;
76667;SDS011;65585;51.166;16.922;2023-08-06T07:41:15;3.80;;;2.70;;
76667;SDS011;65585;51.166;16.922;2023-08-06T07:43:41;2.90;;;2.40;;
76667;SDS011;65585;51.166;16.922;2023-08-06T07:46:10;3.33;;;3.03;;
76667;SDS011;65585;51.166;16.922;2023-08-06T07:48:38;3.20;;;2.75;;
76667;SDS011;65585;51.166;16.922;2023-08-06T07:51:05;3.00;;;2.42;;
76667;SDS011;65585;51.166;16.922;2023-08-06T07:53:32;3.33;;;2.92;;
76667;SDS011;65585;51.166;16.922;2023-08-06T07:56:01;3.40;;;2.67;;
76667;SDS011;65585;51.166;16.922;2023-08-06T07:58:27;3.42;;;2.90;;
76667;SDS011;65585;51.166;16.922;2023-08-06T08:00:58;3.72;;;3.22;;
76667;SDS011;65585;51.166;16.922;2023-08-06T08:03:23;2.95;;;2.65;;
76667;SDS011;65585;51.166;16.922;2023-08-06T08:05:50;3.42;;;2.90;;
76667;SDS011;65585;51.166;16.922;2023-08-06T08:08:20;3.67;;;2.88;;
76667;SDS011;65585;51.166;16.922;2023-08-06T08:10:57;3.63;;;3.05;;
76667;SDS011;65585;51.166;16.922;2023-08-06T08:13:24;3.97;;;3.10;;
76667;SDS011;65585;51.166;16.922;2023-08-06T08:15:55;4.35;;;2.80;;
76667;SDS011;65585;51.166;16.922;2023-08-06T08:18:22;3.42;;;2.67;;
76667;SDS011;65585;51.166;16.922;2023-08-06T08:20:51;3.10;;;2.53;;
76667;SDS011;65585;51.166;16.922;2023-08-06T08:23:16;3.83;;;2.85;;
76667;SDS011;65585;51.166;16.922;2023-08-06T08:25:43;2.97;;;2.65;;
76667;SDS011;65585;51.166;16.922;2023-08-06T08:28:09;3.10;;;2.35;;
76667;SDS011;65585;51.166;16.922;2023-08-06T08:30:35;2.58;;;2.22;;
76667;SDS011;65585;51.166;16.922;2023-08-06T08:33:01;2.80;;;2.47;;
76667;SDS011;65585;51.166;16.922;2023-08-06T08:35:30;3.25;;;2.38;;
76667;SDS011;65585;51.166;16.922;2023-08-06T08:37:58;3.25;;;2.20;;
76667;SDS011;65585;51.166;16.922;2023-08-06T08:40:27;2.53;;;2.05;;
76667;SDS011;65585;51.166;16.922;2023-08-06T08:42:55;2.78;;;2.10;;
76667;SDS011;65585;51.166;16.922;2023-08-06T08:45:22;3.58;;;2.28;;
76667;SDS011;65585;51.166;16.922;2023-08-06T08:47:49;2.75;;;2.10;;
76667;SDS011;65585;51.166;16.922;2023-08-06T08:50:15;2.83;;;1.90;;
76667;SDS011;65585;51.166;16.922;2023-08-06T08:52:42;3.20;;;1.98;;
76667;SDS011;65585;51.166;16.922;2023-08-06T08:55:11;2.15;;;1.90;;
76667;SDS011;65585;51.166;16.922;2023-08-06T08:57:37;3.35;;;1.60;;
76667;SDS011;65585;51.166;16.922;2023-08-06T09:00:04;2.10;;;1.40;;
76667;SDS011;65585;51.166;16.922;2023-08-06T09:02:30;2.88;;;1.70;;
76667;SDS011;65585;51.166;16.922;2023-08-06T09:04:58;2.30;;;1.73;;
76667;SDS011;65585;51.166;16.922;2023-08-06T09:07:27;2.00;;;1.48;;
76667;SDS011;65585;51.166;16.922;2023-08-06T09:09:54;1.98;;;1.60;;
76667;SDS011;65585;51.166;16.922;2023-08-06T09:12:20;2.30;;;1.60;;
76667;SDS011;65585;51.166;16.922;2023-08-06T09:14:47;1.65;;;1.40;;
76667;SDS011;65585;51.166;16.922;2023-08-06T09:17:13;1.77;;;1.30;;
76667;SDS011;65585;51.166;16.922;2023-08-06T09:19:42;1.80;;;1.50;;
76667;SDS011;65585;51.166;16.922;2023-08-06T09:22:13;2.20;;;1.70;;
76667;SDS011;65585;51.166;16.922;2023-08-06T09:24:43;4.22;;;1.92;;
76667;SDS011;65585;51.166;16.922;2023-08-06T09:27:12;2.90;;;1.90;;
76667;SDS011;65585;51.166;16.922;2023-08-06T09:29:42;1.80;;;1.60;;
76667;SDS011;65585;51.166;16.922;2023-08-06T09:32:08;3.05;;;1.80;;
76667;SDS011;65585;51.166;16.922;2023-08-06T09:34:35;2.28;;;1.98;;
76667;SDS011;65585;51.166;16.922;2023-08-06T09:37:00;2.50;;;1.85;;
76667;SDS011;65585;51.166;16.922;2023-08-06T09:39:27;2.08;;;1.65;;
76667;SDS011;65585;51.166;16.922;2023-08-06T09:41:57;2.35;;;1.98;;
76667;SDS011;65585;51.166;16.922;2023-08-06T09:44:25;2.40;;;2.08;;
76667;SDS011;65585;51.166;16.922;2023-08-06T09:46:53;2.00;;;1.70;;
76667;SDS011;65585;51.166;16.922;2023-08-06T09:49:20;2.50;;;2.03;;
76667;SDS011;65585;51.166;16.922;2023-08-06T09:51:46;3.20;;;2.00;;
76667;SDS011;65585;51.166;16.922;2023-08-06T09:54:17;2.90;;;1.70;;
76667;SDS011;65585;51.166;16.922;2023-08-06T09:56:44;2.70;;;1.67;;
76667;SDS011;65585;51.166;16.922;2023-08-06T09:59:11;2.78;;;1.90;;
76667;SDS011;65585;51.166;16.922;2023-08-06T10:01:37;2.53;;;2.00;;
76667;SDS011;65585;51.166;16.922;2023-08-06T10:04:04;3.60;;;1.85;;
76667;SDS011;65585;51.166;16.922;2023-08-06T10:06:31;3.72;;;1.90;;
76667;SDS011;65585;51.166;16.922;2023-08-06T10:09:12;2.55;;;1.90;;
76667;SDS011;65585;51.166;16.922;2023-08-06T10:11:38;2.92;;;2.20;;
76667;SDS011;65585;51.166;16.922;2023-08-06T10:14:08;2.42;;;2.05;;
76667;SDS011;65585;51.166;16.922;2023-08-06T10:16:35;2.70;;;2.00;;
76667;SDS011;65585;51.166;16.922;2023-08-06T10:19:02;3.90;;;1.70;;
76667;SDS011;65585;51.166;16.922;2023-08-06T10:21:30;3.08;;;2.30;;
76667;SDS011;65585;51.166;16.922;2023-08-06T10:23:57;2.42;;;1.90;;
76667;SDS011;65585;51.166;16.922;2023-08-06T10:26:27;3.55;;;2.05;;
76667;SDS011;65585;51.166;16.922;2023-08-06T10:28:54;2.85;;;2.15;;
76667;SDS011;65585;51.166;16.922;2023-08-06T10:34:07;2.42;;;1.92;;
76667;SDS011;65585;51.166;16.922;2023-08-06T10:36:33;3.00;;;2.20;;
76667;SDS011;65585;51.166;16.922;2023-08-06T10:38:59;2.55;;;2.00;;
76667;SDS011;65585;51.166;16.922;2023-08-06T10:41:29;3.53;;;2.00;;
76667;SDS011;65585;51.166;16.922;2023-08-06T10:44:08;3.75;;;2.38;;
76667;SDS011;65585;51.166;16.922;2023-08-06T10:46:34;2.67;;;2.00;;
76667;SDS011;65585;51.166;16.922;2023-08-06T10:49:13;2.88;;;2.20;;
76667;SDS011;65585;51.166;16.922;2023-08-06T10:52:05;2.80;;;2.08;;
76667;SDS011;65585;51.166;16.922;2023-08-06T10:54:48;2.60;;;2.17;;
76667;SDS011;65585;51.166;16.922;2023-08-06T10:57:35;6.35;;;3.90;;
76667;SDS011;65585;51.166;16.922;2023-08-06T11:00:13;6.03;;;4.38;;
76667;SDS011;65585;51.166;16.922;2023-08-06T11:02:55;3.58;;;2.47;;
76667;SDS011;65585;51.166;16.922;2023-08-06T11:05:21;3.97;;;3.03;;
76667;SDS011;65585;51.166;16.922;2023-08-06T11:07:47;3.50;;;3.08;;
76667;SDS011;65585;51.166;16.922;2023-08-06T11:10:24;2.75;;;2.20;;
76667;SDS011;65585;51.166;16.922;2023-08-06T11:12:51;2.85;;;2.50;;
76667;SDS011;65585;51.166;16.922;2023-08-06T11:15:17;3.00;;;2.30;;
76667;SDS011;65585;51.166;16.922;2023-08-06T11:17:43;3.10;;;2.50;;
76667;SDS011;65585;51.166;16.922;2023-08-06T11:20:09;2.60;;;2.00;;
76667;SDS011;65585;51.166;16.922;2023-08-06T11:22:36;2.50;;;1.90;;
76667;SDS011;65585;51.166;16.922;2023-08-06T11:25:01;2.80;;;2.20;;
76667;SDS011;65585;51.166;16.922;2023-08-06T11:27:27;2.53;;;1.95;;
76667;SDS011;65585;51.166;16.922;2023-08-06T11:29:54;2.22;;;1.70;;
76667;SDS011;65585;51.166;16.922;2023-08-06T11:32:20;2.60;;;1.85;;
76667;SDS011;65585;51.166;16.922;2023-08-06T11:34:46;2.55;;;1.95;;
76667;SDS011;65585;51.166;16.922;2023-08-06T11:37:14;2.50;;;2.03;;
76667;SDS011;65585;51.166;16.922;2023-08-06T11:39:44;3.00;;;2.20;;
76667;SDS011;65585;51.166;16.922;2023-08-06T11:42:11;2.05;;;1.60;;
76667;SDS011;65585;51.166;16.922;2023-08-06T11:44:37;3.05;;;2.22;;
76667;SDS011;65585;51.166;16.922;2023-08-06T11:47:04;1.98;;;1.70;;
76667;SDS011;65585;51.166;16.922;2023-08-06T11:49:38;2.00;;;1.42;;
76667;SDS011;65585;51.166;16.922;2023-08-06T11:52:08;1.92;;;1.67;;
76667;SDS011;65585;51.166;16.922;2023-08-06T11:54:34;2.15;;;1.70;;
76667;SDS011;65585;51.166;16.922;2023-08-06T11:57:03;2.40;;;1.80;;
76667;SDS011;65585;51.166;16.922;2023-08-06T12:01:56;2.10;;;1.60;;
76667;SDS011;65585;51.166;16.922;2023-08-06T12:04:22;1.77;;;1.55;;
76667;SDS011;65585;51.166;16.922;2023-08-06T12:06:48;2.22;;;1.70;;
76667;SDS011;65585;51.166;16.922;2023-08-06T12:09:14;1.90;;;1.45;;
76667;SDS011;65585;51.166;16.922;2023-08-06T12:11:40;4.28;;;1.90;;
76667;SDS011;65585;51.166;16.922;2023-08-06T12:14:06;2.30;;;1.90;;
76667;SDS011;65585;51.166;16.922;2023-08-06T12:16:32;1.98;;;1.52;;
76667;SDS011;65585;51.166;16.922;2023-08-06T12:18:58;2.00;;;1.60;;
76667;SDS011;65585;51.166;16.922;2023-08-06T12:21:24;2.72;;;2.00;;
76667;SDS011;65585;51.166;16.922;2023-08-06T12:23:50;2.47;;;2.10;;
76667;SDS011;65585;51.166;16.922;2023-08-06T12:26:16;2.90;;;2.13;;
76667;SDS011;65585;51.166;16.922;2023-08-06T12:28:41;3.63;;;2.25;;
76667;SDS011;65585;51.166;16.922;2023-08-06T12:31:08;1.98;;;1.80;;
76667;SDS011;65585;51.166;16.922;2023-08-06T12:33:34;3.30;;;2.10;;
76667;SDS011;65585;51.166;16.922;2023-08-06T12:36:00;2.30;;;1.85;;
76667;SDS011;65585;51.166;16.922;2023-08-06T12:38:26;3.22;;;2.08;;
76667;SDS011;65585;51.166;16.922;2023-08-06T12:40:52;2.05;;;1.63;;
76667;SDS011;65585;51.166;16.922;2023-08-06T12:43:18;2.50;;;1.90;;
76667;SDS011;65585;51.166;16.922;2023-08-06T12:45:45;2.30;;;1.90;;
76667;SDS011;65585;51.166;16.922;2023-08-06T12:48:11;2.78;;;1.90;;
76667;SDS011;65585;51.166;16.922;2023-08-06T12:50:38;2.47;;;2.00;;
76667;SDS011;65585;51.166;16.922;2023-08-06T12:53:04;2.78;;;2.13;;
76667;SDS011;65585;51.166;16.922;2023-08-06T12:55:31;2.70;;;2.08;;
76667;SDS011;65585;51.166;16.922;2023-08-06T12:57:57;3.85;;;2.05;;
76667;SDS011;65585;51.166;16.922;2023-08-06T13:00:23;2.60;;;2.00;;
76667;SDS011;65585;51.166;16.922;2023-08-06T13:02:49;2.50;;;2.00;;
76667;SDS011;65585;51.166;16.922;2023-08-06T13:05:15;3.85;;;2.35;;
76667;SDS011;65585;51.166;16.922;2023-08-06T13:07:41;2.60;;;2.03;;
76667;SDS011;65585;51.166;16.922;2023-08-06T13:10:07;2.75;;;2.25;;
76667;SDS011;65585;51.166;16.922;2023-08-06T13:12:36;3.17;;;2.30;;
76667;SDS011;65585;51.166;16.922;2023-08-06T13:15:02;4.47;;;2.38;;
76667;SDS011;65585;51.166;16.922;2023-08-06T13:17:28;2.92;;;2.33;;
76667;SDS011;65585;51.166;16.922;2023-08-06T13:19:54;3.30;;;2.50;;
76667;SDS011;65585;51.166;16.922;2023-08-06T13:22:20;2.90;;;2.60;;
76667;SDS011;65585;51.166;16.922;2023-08-06T13:24:46;2.72;;;2.10;;
76667;SDS011;65585;51.166;16.922;2023-08-06T13:27:12;4.47;;;2.38;;
76667;SDS011;65585;51.166;16.922;2023-08-06T13:29:38;4.50;;;2.00;;
76667;SDS011;65585;51.166;16.922;2023-08-06T13:32:04;2.40;;;2.10;;
76667;SDS011;65585;51.166;16.922;2023-08-06T13:34:31;2.90;;;2.17;;
76667;SDS011;65585;51.166;16.922;2023-08-06T13:36:56;2.75;;;2.28;;
76667;SDS011;65585;51.166;16.922;2023-08-06T13:39:23;3.67;;;2.50;;
76667;SDS011;65585;51.166;16.922;2023-08-06T13:41:49;2.67;;;2.08;;
76667;SDS011;65585;51.166;16.922;2023-08-06T13:44:16;2.58;;;2.03;;
76667;SDS011;65585;51.166;16.922;2023-08-06T13:46:42;2.88;;;2.30;;
76667;SDS011;65585;51.166;16.922;2023-08-06T13:49:08;3.30;;;2.20;;
76667;SDS011;65585;51.166;16.922;2023-08-06T13:51:34;2.55;;;1.75;;
76667;SDS011;65585;51.166;16.922;2023-08-06T13:54:01;2.85;;;2.28;;
76667;SDS011;65585;51.166;16.922;2023-08-06T13:56:27;2.70;;;2.13;;
76667;SDS011;65585;51.166;16.922;2023-08-06T13:58:55;2.95;;;2.50;;
76667;SDS011;65585;51.166;16.922;2023-08-06T14:01:21;2.67;;;2.20;;
76667;SDS011;65585;51.166;16.922;2023-08-06T14:03:47;2.72;;;2.03;;
76667;SDS011;65585;51.166;16.922;2023-08-06T14:06:13;2.85;;;2.25;;
76667;SDS011;65585;51.166;16.922;2023-08-06T14:08:39;2.88;;;2.15;;
76667;SDS011;65585;51.166;16.922;2023-08-06T14:11:05;3.25;;;2.10;;
76667;SDS011;65585;51.166;16.922;2023-08-06T14:13:32;3.55;;;2.58;;
76667;SDS011;65585;51.166;16.922;2023-08-06T14:15:58;2.83;;;2.38;;
76667;SDS011;65585;51.166;16.922;2023-08-06T14:18:24;3.30;;;2.58;;
76667;SDS011;65585;51.166;16.922;2023-08-06T14:20:50;3.42;;;2.55;;
76667;SDS011;65585;51.166;16.922;2023-08-06T14:23:17;2.80;;;2.33;;
76667;SDS011;65585;51.166;16.922;2023-08-06T14:25:42;3.10;;;2.45;;
76667;SDS011;65585;51.166;16.922;2023-08-06T14:28:09;4.57;;;2.72;;
76667;SDS011;65585;51.166;16.922;2023-08-06T14:30:34;3.58;;;2.50;;
76667;SDS011;65585;51.166;16.922;2023-08-06T14:33:01;3.55;;;2.65;;
76667;SDS011;65585;51.166;16.922;2023-08-06T14:35:27;3.33;;;2.55;;
76667;SDS011;65585;51.166;16.922;2023-08-06T14:37:53;2.83;;;2.50;;
76667;SDS011;65585;51.166;16.922;2023-08-06T14:40:19;3.00;;;2.53;;
76667;SDS011;65585;51.166;16.922;2023-08-06T14:42:45;3.25;;;2.40;;
76667;SDS011;65585;51.166;16.922;2023-08-06T14:45:11;4.72;;;2.67;;